Spencertown, NY (12165)

9:52 PM EDT on August 30, 2015 (GMT -0400)
chatham | | Change Station
CLOSE
Current Station
Personal Weather Station
Location: Spencertown, NY
Elevation: 1017 ft
Nearby Weather Stations

Elev 1017 ft 42.32 °N, 73.52 °W | Updated 2 minutes ago

Clear
Clear
68.8 °F
Feels Like 68.8 °F
N
0.0
Wind Variable Wind from SW
Gusts 0.0 mph

Today
High -- | Low -- °F
--% Chance of Precip.
Yesterday
High -- | Low -- °F
Precip. -- in
6:17 AM 7:31 PM
Full, 97% visible
Pressure 29.99 in
Visibility 9.0 miles
Clouds Clear
Dew Point 66 °F
Humidity 92%
Rainfall 0.00 in
Snow Depth Not available.
UV 0 out of 12
Pollen 9.20 out of 12
Air Quality Not available.
Flu Activity Not available.
METAR KPSF 310054Z AUTO 00000KT 9SM CLR 19/18 A3005 RMK AO2 SLP154 T01940178
Pressure 29.99 in
Visibility 9.0 miles
Clouds Clear
Dew Point 66 °F
Humidity 92%
Rainfall 0.00 in
Snow Depth Not available.
UV 0 out of 12
Pollen 9.20 out of 12
Air Quality Not available.
Flu Activity Not available.
METAR KPSF 310054Z AUTO 00000KT 9SM CLR 19/18 A3005 RMK AO2 SLP154 T01940178

10-Day Weather Forecast

×

Almanac

Astronomy

Aug. 30, 2015 Rise Set
Actual Time
Civil Twilight
Nautical Twilight
Astronomical Twilight
Moon
Length of Visible Light
Length of Day
Tomorrow will be .
, % of the Moon is Illuminated

Today's Extremes

State Highs State Lows

Community

WunderPhotos

Upload Photos

1,851,145 photos uploaded!

WunderBlogs® & News

Nearby

Air Quality

  Air Quality AQ Index Pollutant
Not available.

Snow Depth

Station Depth Elevation

Earthquake Activity

City Distance Mag. Time & Date
Minimum magnitude displayed is 2.5.

Coastal Water Temperatures

Place Temperature

Stations

Nearby Weather Stations

Station Location Temp. Windchill Dew Point Humidity Wind Precip. Elev Updated Type